sensor_id;sensor_type;location;lat;lon;timestamp;pressure;altitude;pressure_sealevel;temperature;humidity
48390;BME280;34643;47.964;7.982;2024-02-15T00:00:47;97213.25;;;18.31;59.56
48390;BME280;34643;47.964;7.982;2024-02-15T00:03:13;97206.13;;;18.33;59.60
48390;BME280;34643;47.964;7.982;2024-02-15T00:05:38;97205.28;;;18.33;59.38
48390;BME280;34643;47.964;7.982;2024-02-15T00:08:04;97194.00;;;18.32;59.49
48390;BME280;34643;47.964;7.982;2024-02-15T00:10:30;97197.34;;;18.34;59.13
48390;BME280;34643;47.964;7.982;2024-02-15T00:12:55;97196.53;;;18.34;59.38
48390;BME280;34643;47.964;7.982;2024-02-15T00:15:20;97196.53;;;18.34;59.37
48390;BME280;34643;47.964;7.982;2024-02-15T00:17:45;97187.81;;;18.33;59.22
48390;BME280;34643;47.964;7.982;2024-02-15T00:20:12;97204.47;;;18.32;59.30
48390;BME280;34643;47.964;7.982;2024-02-15T00:22:38;97200.88;;;18.33;59.23
48390;BME280;34643;47.964;7.982;2024-02-15T00:25:05;97204.34;;;18.34;59.22
48390;BME280;34643;47.964;7.982;2024-02-15T00:27:30;97198.41;;;18.32;59.24
48390;BME280;34643;47.964;7.982;2024-02-15T00:29:57;97204.56;;;18.31;59.20
48390;BME280;34643;47.964;7.982;2024-02-15T00:32:23;97212.50;;;18.29;59.17
48390;BME280;34643;47.964;7.982;2024-02-15T00:34:48;97209.91;;;18.29;59.49
48390;BME280;34643;47.964;7.982;2024-02-15T00:37:14;97217.75;;;18.29;59.51
48390;BME280;34643;47.964;7.982;2024-02-15T00:39:39;97208.00;;;18.31;59.30
48390;BME280;34643;47.964;7.982;2024-02-15T00:42:04;97204.56;;;18.31;59.37
48390;BME280;34643;47.964;7.982;2024-02-15T00:44:34;97199.25;;;18.32;59.36
48390;BME280;34643;47.964;7.982;2024-02-15T00:46:59;97199.44;;;18.29;59.12
48390;BME280;34643;47.964;7.982;2024-02-15T00:49:24;97193.28;;;18.30;59.04
48390;BME280;34643;47.964;7.982;2024-02-15T00:51:52;97189.00;;;18.29;59.05
48390;BME280;34643;47.964;7.982;2024-02-15T00:54:18;97190.56;;;18.32;58.99
48390;BME280;34643;47.964;7.982;2024-02-15T00:56:43;97188.78;;;18.32;58.97
48390;BME280;34643;47.964;7.982;2024-02-15T00:59:08;97190.56;;;18.32;59.11
48390;BME280;34643;47.964;7.982;2024-02-15T01:01:34;97191.50;;;18.31;59.01
48390;BME280;34643;47.964;7.982;2024-02-15T01:04:03;97190.69;;;18.30;58.97
48390;BME280;34643;47.964;7.982;2024-02-15T01:06:28;97189.00;;;18.29;58.95
48390;BME280;34643;47.964;7.982;2024-02-15T01:08:53;97199.56;;;18.28;59.22
48390;BME280;34643;47.964;7.982;2024-02-15T01:11:18;97188.28;;;18.27;59.13
48390;BME280;34643;47.964;7.982;2024-02-15T01:13:44;97190.88;;;18.27;59.35
48390;BME280;34643;47.964;7.982;2024-02-15T01:16:09;97184.72;;;18.28;59.18
48390;BME280;34643;47.964;7.982;2024-02-15T01:18:34;97178.53;;;18.29;59.16
48390;BME280;34643;47.964;7.982;2024-02-15T01:21:00;97191.00;;;18.26;59.14
48390;BME280;34643;47.964;7.982;2024-02-15T01:23:25;97183.97;;;18.26;59.11
48390;BME280;34643;47.964;7.982;2024-02-15T01:25:51;97188.16;;;18.29;58.94
48390;BME280;34643;47.964;7.982;2024-02-15T01:28:16;97180.22;;;18.30;58.97
48390;BME280;34643;47.964;7.982;2024-02-15T01:30:42;97177.63;;;18.30;58.87
48390;BME280;34643;47.964;7.982;2024-02-15T01:33:11;97172.38;;;18.30;59.09
48390;BME280;34643;47.964;7.982;2024-02-15T01:35:37;97174.03;;;18.31;58.77
48390;BME280;34643;47.964;7.982;2024-02-15T01:38:03;97171.53;;;18.30;58.80
48390;BME280;34643;47.964;7.982;2024-02-15T01:40:28;97180.22;;;18.30;58.85
48390;BME280;34643;47.964;7.982;2024-02-15T01:42:53;97177.63;;;18.30;58.90
48390;BME280;34643;47.964;7.982;2024-02-15T01:45:20;97175.00;;;18.30;59.10
48390;BME280;34643;47.964;7.982;2024-02-15T01:47:46;97178.53;;;18.29;58.87
48390;BME280;34643;47.964;7.982;2024-02-15T01:50:12;97182.13;;;18.28;59.03
48390;BME280;34643;47.964;7.982;2024-02-15T01:52:38;97177.72;;;18.29;58.89
48390;BME280;34643;47.964;7.982;2024-02-15T01:55:04;97173.53;;;18.26;59.23
48390;BME280;34643;47.964;7.982;2024-02-15T01:57:34;97162.88;;;18.29;58.97
48390;BME280;34643;47.964;7.982;2024-02-15T01:59:59;97167.28;;;18.29;59.02
48390;BME280;34643;47.964;7.982;2024-02-15T02:02:25;97173.31;;;18.29;58.87
48390;BME280;34643;47.964;7.982;2024-02-15T02:04:53;97159.31;;;18.30;58.96
48390;BME280;34643;47.964;7.982;2024-02-15T02:07:19;97163.69;;;18.30;58.82
48390;BME280;34643;47.964;7.982;2024-02-15T02:09:45;97156.72;;;18.30;58.96
48390;BME280;34643;47.964;7.982;2024-02-15T02:12:11;97164.53;;;18.30;58.83
48390;BME280;34643;47.964;7.982;2024-02-15T02:14:36;97156.72;;;18.30;58.83
48390;BME280;34643;47.964;7.982;2024-02-15T02:17:14;97162.03;;;18.29;58.79
48390;BME280;34643;47.964;7.982;2024-02-15T02:19:39;97154.19;;;18.29;59.01
48390;BME280;34643;47.964;7.982;2024-02-15T02:22:05;97157.63;;;18.29;58.82
48390;BME280;34643;47.964;7.982;2024-02-15T02:24:31;97153.25;;;18.30;58.92
48390;BME280;34643;47.964;7.982;2024-02-15T02:27:02;97158.59;;;18.28;58.91
48390;BME280;34643;47.964;7.982;2024-02-15T02:29:28;97151.91;;;18.24;58.79
48390;BME280;34643;47.964;7.982;2024-02-15T02:31:56;97146.47;;;18.27;59.07
48390;BME280;34643;47.964;7.982;2024-02-15T02:34:21;97141.13;;;18.29;58.72
48390;BME280;34643;47.964;7.982;2024-02-15T02:36:46;97141.13;;;18.29;58.96
48390;BME280;34643;47.964;7.982;2024-02-15T02:39:13;97148.16;;;18.28;58.66
48390;BME280;34643;47.964;7.982;2024-02-15T02:41:38;97143.66;;;18.30;58.88
48390;BME280;34643;47.964;7.982;2024-02-15T02:44:03;97136.75;;;18.29;58.73
48390;BME280;34643;47.964;7.982;2024-02-15T02:46:29;97145.53;;;18.28;59.10
48390;BME280;34643;47.964;7.982;2024-02-15T02:48:55;97144.56;;;18.29;58.67
48390;BME280;34643;47.964;7.982;2024-02-15T02:51:20;97152.41;;;18.29;58.80
48390;BME280;34643;47.964;7.982;2024-02-15T02:53:46;97160.97;;;18.31;58.63
48390;BME280;34643;47.964;7.982;2024-02-15T02:56:11;97151.47;;;18.30;58.90
48390;BME280;34643;47.964;7.982;2024-02-15T02:58:38;97150.53;;;18.31;58.64
48390;BME280;34643;47.964;7.982;2024-02-15T03:01:07;97148.00;;;18.30;58.93
48390;BME280;34643;47.964;7.982;2024-02-15T03:03:33;97143.75;;;18.29;58.75
48390;BME280;34643;47.964;7.982;2024-02-15T03:05:58;97141.97;;;18.29;58.89
48390;BME280;34643;47.964;7.982;2024-02-15T03:08:24;97135.19;;;18.27;58.83
48390;BME280;34643;47.964;7.982;2024-02-15T03:10:49;97140.19;;;18.30;58.77
48390;BME280;34643;47.964;7.982;2024-02-15T03:13:16;97140.31;;;18.28;58.74
48390;BME280;34643;47.964;7.982;2024-02-15T03:15:44;97134.00;;;18.31;58.60
48390;BME280;34643;47.964;7.982;2024-02-15T03:18:12;97126.19;;;18.31;58.63
48390;BME280;34643;47.964;7.982;2024-02-15T03:20:37;97127.09;;;18.30;58.57
48390;BME280;34643;47.964;7.982;2024-02-15T03:23:03;97129.72;;;18.30;58.77
48390;BME280;34643;47.964;7.982;2024-02-15T03:25:28;97123.56;;;18.31;58.58
48390;BME280;34643;47.964;7.982;2024-02-15T03:27:57;97127.25;;;18.28;58.86
48390;BME280;34643;47.964;7.982;2024-02-15T03:30:24;97133.41;;;18.27;58.65
48390;BME280;34643;47.964;7.982;2024-02-15T03:32:50;97130.78;;;18.27;58.73
48390;BME280;34643;47.964;7.982;2024-02-15T03:35:19;97132.34;;;18.30;58.88
48390;BME280;34643;47.964;7.982;2024-02-15T03:37:44;97129.00;;;18.28;58.91
48390;BME280;34643;47.964;7.982;2024-02-15T03:40:10;97136.94;;;18.26;59.06
48390;BME280;34643;47.964;7.982;2024-02-15T03:42:35;97136.22;;;18.24;58.90
48390;BME280;34643;47.964;7.982;2024-02-15T03:45:05;97133.41;;;18.27;59.02
48390;BME280;34643;47.964;7.982;2024-02-15T03:47:31;97139.47;;;18.28;58.70
48390;BME280;34643;47.964;7.982;2024-02-15T03:49:57;97142.94;;;18.28;58.86
48390;BME280;34643;47.964;7.982;2024-02-15T03:52:23;97138.84;;;18.24;58.78
48390;BME280;34643;47.964;7.982;2024-02-15T03:54:48;97141.47;;;18.24;59.03
48390;BME280;34643;47.964;7.982;2024-02-15T03:57:14;97150.97;;;18.25;58.70
48390;BME280;34643;47.964;7.982;2024-02-15T03:59:41;97152.78;;;18.24;58.75
48390;BME280;34643;47.964;7.982;2024-02-15T04:02:07;97149.91;;;18.28;58.64
48390;BME280;34643;47.964;7.982;2024-02-15T04:04:37;97144.69;;;18.28;58.66
48390;BME280;34643;47.964;7.982;2024-02-15T04:07:03;97135.91;;;18.29;58.56
48390;BME280;34643;47.964;7.982;2024-02-15T04:09:28;97126.28;;;18.29;58.85
48390;BME280;34643;47.964;7.982;2024-02-15T04:11:53;97134.00;;;18.31;58.57
48390;BME280;34643;47.964;7.982;2024-02-15T04:14:19;97135.81;;;18.30;58.38
48390;BME280;34643;47.964;7.982;2024-02-15T04:16:44;97150.00;;;18.26;58.68
48390;BME280;34643;47.964;7.982;2024-02-15T04:19:10;97144.78;;;18.26;58.73
48390;BME280;34643;47.964;7.982;2024-02-15T04:21:35;97139.56;;;18.26;58.58
48390;BME280;34643;47.964;7.982;2024-02-15T04:24:01;97137.81;;;18.27;58.50
48390;BME280;34643;47.964;7.982;2024-02-15T04:26:26;97143.03;;;18.27;58.48
48390;BME280;34643;47.964;7.982;2024-02-15T04:28:54;97147.28;;;18.28;58.66
48390;BME280;34643;47.964;7.982;2024-02-15T04:31:20;97140.31;;;18.28;58.47
48390;BME280;34643;47.964;7.982;2024-02-15T04:33:46;97143.84;;;18.27;58.60
48390;BME280;34643;47.964;7.982;2024-02-15T04:36:14;97138.75;;;18.26;58.51
48390;BME280;34643;47.964;7.982;2024-02-15T04:38:40;97132.78;;;18.23;58.60
48390;BME280;34643;47.964;7.982;2024-02-15T04:41:05;97133.63;;;18.24;58.80
48390;BME280;34643;47.964;7.982;2024-02-15T04:43:34;97129.84;;;18.28;58.57
48390;BME280;34643;47.964;7.982;2024-02-15T04:46:02;97123.16;;;18.24;58.76
48390;BME280;34643;47.964;7.982;2024-02-15T04:48:32;97119.63;;;18.25;58.72
48390;BME280;34643;47.964;7.982;2024-02-15T04:50:57;97116.28;;;18.23;58.70
48390;BME280;34643;47.964;7.982;2024-02-15T04:53:24;97118.91;;;18.23;58.91
48390;BME280;34643;47.964;7.982;2024-02-15T04:55:50;97112.72;;;18.24;58.72
48390;BME280;34643;47.964;7.982;2024-02-15T04:58:15;97102.97;;;18.26;58.87
48390;BME280;34643;47.964;7.982;2024-02-15T05:00:41;97106.44;;;18.27;58.71
48390;BME280;34643;47.964;7.982;2024-02-15T05:03:07;97112.41;;;18.29;58.95
48390;BME280;34643;47.964;7.982;2024-02-15T05:05:33;97104.44;;;18.30;58.56
48390;BME280;34643;47.964;7.982;2024-02-15T05:07:58;97104.44;;;18.30;58.81
48390;BME280;34643;47.964;7.982;2024-02-15T05:10:26;97095.53;;;18.33;58.64
48390;BME280;34643;47.964;7.982;2024-02-15T05:12:52;97095.53;;;18.33;58.61
48390;BME280;34643;47.964;7.982;2024-02-15T05:15:18;97095.44;;;18.34;58.56
48390;BME280;34643;47.964;7.982;2024-02-15T05:17:48;97094.50;;;18.35;58.53
48390;BME280;34643;47.964;7.982;2024-02-15T05:20:13;97094.34;;;18.37;58.47
48390;BME280;34643;47.964;7.982;2024-02-15T05:22:39;97095.22;;;18.37;58.53
48390;BME280;34643;47.964;7.982;2024-02-15T05:25:08;97096.16;;;18.36;58.54
48390;BME280;34643;47.964;7.982;2024-02-15T05:27:34;97085.59;;;18.38;58.56
48390;BME280;34643;47.964;7.982;2024-02-15T05:29:59;97092.59;;;18.37;58.41
48390;BME280;34643;47.964;7.982;2024-02-15T05:32:24;97089.78;;;18.40;58.64
48390;BME280;34643;47.964;7.982;2024-02-15T05:34:51;97088.81;;;18.41;58.46
48390;BME280;34643;47.964;7.982;2024-02-15T05:37:16;97087.88;;;18.42;58.68
48390;BME280;34643;47.964;7.982;2024-02-15T05:39:42;97092.13;;;18.43;58.59
48390;BME280;34643;47.964;7.982;2024-02-15T05:42:07;97086.09;;;18.43;58.41
48390;BME280;34643;47.964;7.982;2024-02-15T05:44:34;97074.81;;;18.42;58.49
48390;BME280;34643;47.964;7.982;2024-02-15T05:47:00;97086.19;;;18.41;58.48
48390;BME280;34643;47.964;7.982;2024-02-15T05:49:25;97083.34;;;18.45;58.39
48390;BME280;34643;47.964;7.982;2024-02-15T05:51:50;97073.00;;;18.43;58.25
48390;BME280;34643;47.964;7.982;2024-02-15T05:54:16;97073.84;;;18.43;58.51
48390;BME280;34643;47.964;7.982;2024-02-15T05:56:42;97078.25;;;18.43;58.53
48390;BME280;34643;47.964;7.982;2024-02-15T05:59:08;97071.47;;;18.40;58.45
48390;BME280;34643;47.964;7.982;2024-02-15T06:01:39;97076.69;;;18.40;58.41
48390;BME280;34643;47.964;7.982;2024-02-15T06:04:04;97076.81;;;18.39;58.50
48390;BME280;34643;47.964;7.982;2024-02-15T06:06:33;97075.03;;;18.39;58.39
48390;BME280;34643;47.964;7.982;2024-02-15T06:08:58;97068.97;;;18.39;58.45
48390;BME280;34643;47.964;7.982;2024-02-15T06:11:25;97058.50;;;18.39;58.43
48390;BME280;34643;47.964;7.982;2024-02-15T06:13:50;97067.28;;;18.38;58.51
48390;BME280;34643;47.964;7.982;2024-02-15T06:16:15;97056.00;;;18.37;58.26
48390;BME280;34643;47.964;7.982;2024-02-15T06:18:41;97064.78;;;18.36;58.23
48390;BME280;34643;47.964;7.982;2024-02-15T06:21:06;97059.66;;;18.35;58.50
48390;BME280;34643;47.964;7.982;2024-02-15T06:23:31;97056.22;;;18.34;58.30
48390;BME280;34643;47.964;7.982;2024-02-15T06:25:58;97051.00;;;18.34;58.34
48390;BME280;34643;47.964;7.982;2024-02-15T06:28:24;97046.72;;;18.33;58.40
48390;BME280;34643;47.964;7.982;2024-02-15T06:31:08;97056.22;;;18.34;58.15
48390;BME280;34643;47.964;7.982;2024-02-15T06:33:52;97047.69;;;18.32;58.20
48390;BME280;34643;47.964;7.982;2024-02-15T06:36:48;97050.19;;;18.34;58.21
48390;BME280;34643;47.964;7.982;2024-02-15T06:39:32;97044.69;;;18.37;58.09
48390;BME280;34643;47.964;7.982;2024-02-15T06:42:06;97055.03;;;18.38;58.06
48390;BME280;34643;47.964;7.982;2024-02-15T06:44:31;97055.91;;;18.39;58.11
48390;BME280;34643;47.964;7.982;2024-02-15T06:46:57;97048.06;;;18.39;57.98
48390;BME280;34643;47.964;7.982;2024-02-15T06:49:22;97049.00;;;18.38;58.01
48390;BME280;34643;47.964;7.982;2024-02-15T06:51:49;97051.59;;;18.38;57.69
48390;BME280;34643;47.964;7.982;2024-02-15T06:54:16;97046.38;;;18.38;58.00
48390;BME280;34643;47.964;7.982;2024-02-15T06:56:43;97043.88;;;18.36;57.79
48390;BME280;34643;47.964;7.982;2024-02-15T06:59:11;97042.94;;;18.37;57.77
48390;BME280;34643;47.964;7.982;2024-02-15T07:01:40;97038.66;;;18.36;57.75
48390;BME280;34643;47.964;7.982;2024-02-15T07:04:05;97042.22;;;18.35;57.77
48390;BME280;34643;47.964;7.982;2024-02-15T07:06:30;97037.81;;;18.36;57.76
48390;BME280;34643;47.964;7.982;2024-02-15T07:08:56;97031.78;;;18.35;57.69
48390;BME280;34643;47.964;7.982;2024-02-15T07:11:22;97030.09;;;18.34;57.69
48390;BME280;34643;47.964;7.982;2024-02-15T07:13:48;97030.91;;;18.35;57.62
48390;BME280;34643;47.964;7.982;2024-02-15T07:16:13;97023.09;;;18.35;57.75
48390;BME280;34643;47.964;7.982;2024-02-15T07:18:40;97024.16;;;18.32;57.56
48390;BME280;34643;47.964;7.982;2024-02-15T07:21:05;97020.59;;;18.33;57.52
48390;BME280;34643;47.964;7.982;2024-02-15T07:23:36;97024.97;;;18.33;57.59
48390;BME280;34643;47.964;7.982;2024-02-15T07:26:01;97017.38;;;18.30;57.47
48390;BME280;34643;47.964;7.982;2024-02-15T07:28:28;97017.25;;;18.31;57.44
48390;BME280;34643;47.964;7.982;2024-02-15T07:30:55;97016.44;;;18.31;57.54
48390;BME280;34643;47.964;7.982;2024-02-15T07:33:21;97015.72;;;18.29;57.46
48390;BME280;34643;47.964;7.982;2024-02-15T07:35:47;97019.16;;;18.29;57.49
48390;BME280;34643;47.964;7.982;2024-02-15T07:38:16;97013.81;;;18.31;57.40
48390;BME280;34643;47.964;7.982;2024-02-15T07:40:41;97014.03;;;18.28;57.55
48390;BME280;34643;47.964;7.982;2024-02-15T07:43:06;97000.16;;;18.27;57.34
48390;BME280;34643;47.964;7.982;2024-02-15T07:45:32;97013.22;;;18.27;57.39
48390;BME280;34643;47.964;7.982;2024-02-15T07:48:00;97009.88;;;18.25;57.51
48390;BME280;34643;47.964;7.982;2024-02-15T07:50:26;97011.69;;;18.24;57.35
48390;BME280;34643;47.964;7.982;2024-02-15T07:52:51;97005.59;;;18.24;57.49
48390;BME280;34643;47.964;7.982;2024-02-15T07:55:16;97002.97;;;18.24;57.50
48390;BME280;34643;47.964;7.982;2024-02-15T07:57:42;96994.31;;;18.23;57.18
48390;BME280;34643;47.964;7.982;2024-02-15T08:00:07;96994.44;;;18.22;57.50
48390;BME280;34643;47.964;7.982;2024-02-15T08:02:39;96992.78;;;18.21;57.31
48390;BME280;34643;47.964;7.982;2024-02-15T08:05:07;96996.31;;;18.20;57.24
48390;BME280;34643;47.964;7.982;2024-02-15T08:07:40;96996.22;;;18.21;57.36
48390;BME280;34643;47.964;7.982;2024-02-15T08:10:06;96986.69;;;18.20;57.34
48390;BME280;34643;47.964;7.982;2024-02-15T08:12:37;97000.72;;;18.19;57.17
48390;BME280;34643;47.964;7.982;2024-02-15T08:15:03;96999.88;;;18.19;57.44
48390;BME280;34643;47.964;7.982;2024-02-15T08:17:29;97007.00;;;18.17;57.13
48390;BME280;34643;47.964;7.982;2024-02-15T08:19:55;97008.78;;;18.16;57.25
48390;BME280;34643;47.964;7.982;2024-02-15T08:22:20;97011.50;;;18.15;57.12
48390;BME280;34643;47.964;7.982;2024-02-15T08:24:49;97011.50;;;18.15;57.20
48390;BME280;34643;47.964;7.982;2024-02-15T08:27:14;97014.13;;;18.15;57.40
48390;BME280;34643;47.964;7.982;2024-02-15T08:29:41;96997.72;;;18.13;57.23
48390;BME280;34643;47.964;7.982;2024-02-15T08:32:06;96996.75;;;18.14;57.39
48390;BME280;34643;47.964;7.982;2024-02-15T08:34:32;96999.38;;;18.14;57.29
48390;BME280;34643;47.964;7.982;2024-02-15T08:36:58;96995.13;;;18.13;57.21
48390;BME280;34643;47.964;7.982;2024-02-15T08:39:23;96984.66;;;18.13;57.30
48390;BME280;34643;47.964;7.982;2024-02-15T08:41:50;96990.94;;;18.10;57.22
48390;BME280;34643;47.964;7.982;2024-02-15T08:44:18;96974.31;;;18.11;57.22
48390;BME280;34643;47.964;7.982;2024-02-15T08:46:44;96974.44;;;18.10;57.42
48390;BME280;34643;47.964;7.982;2024-02-15T08:49:09;96967.56;;;18.09;56.95
48390;BME280;34643;47.964;7.982;2024-02-15T08:51:38;96967.56;;;18.09;57.06
48390;BME280;34643;47.964;7.982;2024-02-15T08:54:03;96967.56;;;18.09;57.04
48390;BME280;34643;47.964;7.982;2024-02-15T08:56:29;96968.50;;;18.08;57.22
48390;BME280;34643;47.964;7.982;2024-02-15T08:58:54;96964.09;;;18.08;57.23
48390;BME280;34643;47.964;7.982;2024-02-15T09:01:19;96961.59;;;18.07;57.20
48390;BME280;34643;47.964;7.982;2024-02-15T09:03:45;96958.16;;;18.06;57.12
48390;BME280;34643;47.964;7.982;2024-02-15T09:06:10;96967.91;;;18.04;57.28
48390;BME280;34643;47.964;7.982;2024-02-15T09:08:35;96954.22;;;18.00;57.27
48390;BME280;34643;47.964;7.982;2024-02-15T09:11:01;96941.16;;;17.89;57.73
48390;BME280;34643;47.964;7.982;2024-02-15T09:13:26;96943.75;;;17.89;57.93
48390;BME280;34643;47.964;7.982;2024-02-15T09:15:51;96939.06;;;17.81;58.07
48390;BME280;34643;47.964;7.982;2024-02-15T09:18:16;96931.00;;;17.84;58.15
48390;BME280;34643;47.964;7.982;2024-02-15T09:20:48;96924.72;;;17.87;58.19
48390;BME280;34643;47.964;7.982;2024-02-15T09:23:14;96928.56;;;17.94;57.69
48390;BME280;34643;47.964;7.982;2024-02-15T09:25:39;96921.34;;;17.98;57.59
48390;BME280;34643;47.964;7.982;2024-02-15T09:28:05;96914.56;;;17.95;57.73
48390;BME280;34643;47.964;7.982;2024-02-15T09:30:30;96914.63;;;17.82;58.46
48390;BME280;34643;47.964;7.982;2024-02-15T09:32:56;96908.31;;;17.85;58.48
48390;BME280;34643;47.964;7.982;2024-02-15T09:35:22;96905.97;;;17.82;58.92
48390;BME280;34643;47.964;7.982;2024-02-15T09:37:48;96903.19;;;17.96;59.01
48390;BME280;34643;47.964;7.982;2024-02-15T09:40:14;96902.72;;;18.02;58.64
48390;BME280;34643;47.964;7.982;2024-02-15T09:42:41;96901.53;;;18.07;59.14
48390;BME280;34643;47.964;7.982;2024-02-15T09:45:07;96895.38;;;18.08;59.16
48390;BME280;34643;47.964;7.982;2024-02-15T09:47:36;96896.19;;;18.08;59.14
48390;BME280;34643;47.964;7.982;2024-02-15T09:50:05;96889.81;;;18.12;59.17
48390;BME280;34643;47.964;7.982;2024-02-15T09:52:31;96896.44;;;18.16;59.01
48390;BME280;34643;47.964;7.982;2024-02-15T09:54:58;96900.50;;;18.20;59.28
48390;BME280;34643;47.964;7.982;2024-02-15T09:57:25;96893.25;;;18.24;59.28
48390;BME280;34643;47.964;7.982;2024-02-15T09:59:52;96893.50;;;18.21;59.38
48390;BME280;34643;47.964;7.982;2024-02-15T10:02:18;96892.66;;;18.20;59.41
48390;BME280;34643;47.964;7.982;2024-02-15T10:04:43;96894.91;;;18.25;59.51
48390;BME280;34643;47.964;7.982;2024-02-15T10:07:09;96889.00;;;18.23;59.97
48390;BME280;34643;47.964;7.982;2024-02-15T10:09:34;96890.53;;;18.26;60.09
48390;BME280;34643;47.964;7.982;2024-02-15T10:12:01;96882.34;;;18.30;60.02
48390;BME280;34643;47.964;7.982;2024-02-15T10:14:28;96882.09;;;18.33;60.12
48390;BME280;34643;47.964;7.982;2024-02-15T10:16:53;96881.84;;;18.36;59.42
48390;BME280;34643;47.964;7.982;2024-02-15T10:19:22;96875.81;;;18.36;59.28
48390;BME280;34643;47.964;7.982;2024-02-15T10:21:51;96874.63;;;18.40;57.97
48390;BME280;34643;47.964;7.982;2024-02-15T10:24:17;96867.50;;;18.31;57.16
48390;BME280;34643;47.964;7.982;2024-02-15T10:26:44;96871.63;;;18.33;56.16
48390;BME280;34643;47.964;7.982;2024-02-15T10:29:13;96871.91;;;18.30;56.50
48390;BME280;34643;47.964;7.982;2024-02-15T10:31:40;96862.59;;;18.26;56.32
48390;BME280;34643;47.964;7.982;2024-02-15T10:34:16;96860.84;;;18.27;56.74
48390;BME280;34643;47.964;7.982;2024-02-15T10:36:44;96860.13;;;18.24;57.13
48390;BME280;34643;47.964;7.982;2024-02-15T10:39:13;96861.66;;;18.27;57.00
48390;BME280;34643;47.964;7.982;2024-02-15T10:41:43;96860.84;;;18.27;56.84
48390;BME280;34643;47.964;7.982;2024-02-15T10:44:09;96861.56;;;18.29;56.88
48390;BME280;34643;47.964;7.982;2024-02-15T10:46:34;96856.31;;;18.29;56.82
48390;BME280;34643;47.964;7.982;2024-02-15T10:49:00;96854.75;;;18.26;56.81
48390;BME280;34643;47.964;7.982;2024-02-15T10:51:25;96858.13;;;18.28;57.19
48390;BME280;34643;47.964;7.982;2024-02-15T10:53:56;96849.44;;;18.28;56.93
48390;BME280;34643;47.964;7.982;2024-02-15T10:56:25;96847.66;;;18.28;56.97
48390;BME280;34643;47.964;7.982;2024-02-15T10:58:55;96845.88;;;18.29;56.96
48390;BME280;34643;47.964;7.982;2024-02-15T11:01:25;96841.84;;;18.24;57.20
48390;BME280;34643;47.964;7.982;2024-02-15T11:04:11;96844.31;;;18.26;57.21
48390;BME280;34643;47.964;7.982;2024-02-15T11:06:38;96838.16;;;18.27;57.26
48390;BME280;34643;47.964;7.982;2024-02-15T11:09:07;96834.59;;;18.28;57.16
48390;BME280;34643;47.964;7.982;2024-02-15T11:11:33;96835.44;;;18.29;57.07
48390;BME280;34643;47.964;7.982;2024-02-15T11:16:43;96833.75;;;18.28;57.06
48390;BME280;34643;47.964;7.982;2024-02-15T11:19:09;96830.44;;;18.26;57.32
48390;BME280;34643;47.964;7.982;2024-02-15T11:22:09;96822.38;;;18.29;57.23
48390;BME280;34643;47.964;7.982;2024-02-15T11:24:32;96826.88;;;18.27;57.03
48390;BME280;34643;47.964;7.982;2024-02-15T11:27:00;96829.50;;;18.27;57.24
48390;BME280;34643;47.964;7.982;2024-02-15T11:42:58;96795.66;;;18.25;57.05
48390;BME280;34643;47.964;7.982;2024-02-15T11:45:24;96787.81;;;18.25;57.21
48390;BME280;34643;47.964;7.982;2024-02-15T11:47:51;96792.91;;;18.27;57.18
48390;BME280;34643;47.964;7.982;2024-02-15T11:50:17;96786.00;;;18.26;57.17
48390;BME280;34643;47.964;7.982;2024-02-15T11:52:43;96775.56;;;18.26;57.03
48390;BME280;34643;47.964;7.982;2024-02-15T11:55:08;96772.00;;;18.27;56.82
48390;BME280;34643;47.964;7.982;2024-02-15T11:57:36;96768.69;;;18.24;57.01
48390;BME280;34643;47.964;7.982;2024-02-15T12:00:03;96767.84;;;18.24;57.19
48390;BME280;34643;47.964;7.982;2024-02-15T12:02:47;96772.13;;;18.25;57.14
48390;BME280;34643;47.964;7.982;2024-02-15T12:05:30;96767.38;;;18.19;57.25
48390;BME280;34643;47.964;7.982;2024-02-15T12:08:14;96760.25;;;18.10;57.65
48390;BME280;34643;47.964;7.982;2024-02-15T12:11:01;96764.28;;;18.02;58.22
48390;BME280;34643;47.964;7.982;2024-02-15T12:13:51;96762.38;;;18.04;58.26
48390;BME280;34643;47.964;7.982;2024-02-15T12:16:36;96756.94;;;18.08;57.97
48390;BME280;34643;47.964;7.982;2024-02-15T12:19:20;96755.13;;;18.08;57.93
48390;BME280;34643;47.964;7.982;2024-02-15T12:21:46;96755.63;;;18.13;57.94
48390;BME280;34643;47.964;7.982;2024-02-15T12:24:12;96752.19;;;18.13;57.82
48390;BME280;34643;47.964;7.982;2024-02-15T12:26:39;96747.66;;;18.15;57.78
48390;BME280;34643;47.964;7.982;2024-02-15T12:29:06;96744.72;;;18.19;57.80
48390;BME280;34643;47.964;7.982;2024-02-15T12:31:32;96735.66;;;18.23;57.71
48390;BME280;34643;47.964;7.982;2024-02-15T12:34:03;96729.63;;;18.23;57.63
48390;BME280;34643;47.964;7.982;2024-02-15T12:36:32;96726.31;;;18.21;57.54
48390;BME280;34643;47.964;7.982;2024-02-15T12:39:04;96722.03;;;18.20;57.56
48390;BME280;34643;47.964;7.982;2024-02-15T12:41:36;96724.63;;;18.20;57.87
48390;BME280;34643;47.964;7.982;2024-02-15T12:44:01;96715.00;;;18.20;57.63
48390;BME280;34643;47.964;7.982;2024-02-15T12:46:27;96726.03;;;18.24;57.63
48390;BME280;34643;47.964;7.982;2024-02-15T12:49:05;96718.09;;;18.26;57.67
48390;BME280;34643;47.964;7.982;2024-02-15T12:51:31;96725.09;;;18.25;57.50
48390;BME280;34643;47.964;7.982;2024-02-15T12:54:07;96731.25;;;18.24;57.40
48390;BME280;34643;47.964;7.982;2024-02-15T12:56:32;96717.25;;;18.25;57.37
48390;BME280;34643;47.964;7.982;2024-02-15T12:58:58;96709.31;;;18.27;57.46
48390;BME280;34643;47.964;7.982;2024-02-15T13:01:23;96717.84;;;18.29;57.27
48390;BME280;34643;47.964;7.982;2024-02-15T13:03:51;96712.50;;;18.30;57.42
48390;BME280;34643;47.964;7.982;2024-02-15T13:06:16;96706.31;;;18.31;57.44
48390;BME280;34643;47.964;7.982;2024-02-15T13:08:43;96706.31;;;18.31;57.35
48390;BME280;34643;47.964;7.982;2024-02-15T13:11:13;96703.69;;;18.31;57.35
48390;BME280;34643;47.964;7.982;2024-02-15T13:13:40;96701.94;;;18.32;57.42
48390;BME280;34643;47.964;7.982;2024-02-15T13:16:07;96708.00;;;18.32;57.29